Capitol Logistics 1155


EBLG
Liège Airport
Liege, BE
GMMN
Mohammed V International Airport
Casablanca, MA

Route Details

Aircraft Information
Primary: Boeing 737-800BCF
Backup: Not Available
Route Data
Distance: 1185nm
Sched. Duration: 2h 45m
Avg. Duration: 3h 41m (+96m)
Times Flown: 1
Recm'd Route: Not Available
Planned Altitude: 36,000ft
Origin Wx: EBLG 261120Z 03008KT 350V070 CAVOK 21/06 Q1035 NOSIG
Dest. Wx: GMMN 261130Z 30005KT 250V010 CAVOK 31/14 Q1017 NOSIG
Notes:

Financial History
Total Freight: 44,880lbs
Average Load: 44,880lbs/flt
Fuel Used: 20,150lbs
Avg. Fuel Used: 20,150lbs/flt
Fuel Expense: $22,367
Avg. Fuel Expense: $22,367
Avg. Fuel Cost: $1.11/lbs
Total Gross Income: $270,626
Pilot Pay: $229
Total Expenses: $29,280
Total Revenue: $218,137
Average Revenue: $270,626.41